BGJN

Details ICAO BGJN (JAV)
Name Ilulissat/Jakobshavn
Region Greenland
Timezone America/Godthab (UTC-2.0)
Plans Departing 13
Arriving 23
Stats Elevation 95 ft / 29 m (AMSL)
Location 69.244438° -51.062221°
Runways 1
Magnetic Variation 30.886° W
Sunrise Unknown / Unknown
Sunset Unknown / Unknown
Advertisement - Login to hide

Runways

ID Width Length Bearing (true) Bearing (mag) Surface Threshold Offset Overrun Length
08 98 ft / 30 m 2,773 ft / 845 m 34.99° 65.88° Asphalt 0 ft / 0 m 0 ft / 0 m
26 98 ft / 30 m 2,773 ft / 845 m 215.01° 245.90° Asphalt 0 ft / 0 m 0 ft / 0 m

Map

Weather


0- 5 10 15 20 25 30 35+ Temperature / ° C

Clouds and Precipitation
Forecast for 2018-05-25 12:00 UTC. Updated 2 hours ago

Ground ~20,000 ft ~40,000 ft Winds

METAR

BGJN 251250Z 34007KT 9999 FEW020 M01/M05 Q1009

TAF

Not found
Warning: Do not use this data for real-world aviation or navigation. No guarantee of current accuracy is given.